Terminal Aerodrome Forecast
Issued by NWS

Home | Current Version | Previous Version | Text Only | Print | Product List | Glossary On
Versions: 1 2 3 4 5 6 7 8 9 10 11 12
000
FTUS42 KMLB 310500
TAFSUA
TAF
KSUA 310539Z 3106/0106 10005KT P6SM FEW025 SCT250
     FM311400 10011KT P6SM SCT025 SCT250
     FM312000 11006KT P6SM SCT030
     FM010300 10002KT P6SM SCT020=

USA.gov is the U.S. government's official web portal to all federal, state and local government web resources and services.